Time;durP1;ratioP1;P1;durP2;ratioP2;P2;SDS_P1;SDS_P2;PMS_P1;PMS_P2;Temp;Humidity;BMP_temperature;BMP_pressure;BME280_temperature;BME280_humidity;BME280_pressure;Samples;Min_cycle;Max_cycle;Signal;HPM_P1;HPM_P2
2022/08/15 00:00:54;;;;;;;7.32;6.57;;;24.70;90.00;;;;;;4964156;28;20062;-44
2022/08/15 00:03:29;;;;;;;9.02;6.82;;;24.60;90.10;;;;;;4962262;28;20043;-46
2022/08/15 00:05:58;;;;;;;10.55;7.38;;;24.70;90.30;;;;;;4962843;28;20486;-47
2022/08/15 00:08:26;;;;;;;7.88;6.70;;;24.70;90.10;;;;;;4961184;28;20089;-45
2022/08/15 00:10:53;;;;;;;8.25;7.30;;;24.70;90.30;;;;;;4962380;28;20034;-48
2022/08/15 00:13:25;;;;;;;9.07;6.95;;;24.60;90.20;;;;;;4962492;28;20031;-46
2022/08/15 00:15:54;;;;;;;10.07;7.87;;;24.60;90.60;;;;;;4962654;28;20042;-45
2022/08/15 00:18:25;;;;;;;8.77;7.60;;;24.60;90.40;;;;;;4962038;28;20398;-45
2022/08/15 00:20:52;;;;;;;12.18;7.45;;;24.60;90.40;;;;;;4963500;28;20035;-45
2022/08/15 00:23:22;;;;;;;9.75;7.53;;;24.60;90.40;;;;;;4961864;28;20055;-46
2022/08/15 00:25:50;;;;;;;7.38;6.63;;;24.50;90.60;;;;;;4962167;28;20582;-47
2022/08/15 00:28:16;;;;;;;9.02;7.00;;;24.50;90.70;;;;;;4963515;28;20061;-44
2022/08/15 00:30:44;;;;;;;8.75;7.43;;;24.40;90.50;;;;;;4961857;28;20495;-46
2022/08/15 00:33:11;;;;;;;9.70;7.47;;;24.40;90.60;;;;;;4961874;28;20031;-44
2022/08/15 00:35:40;;;;;;;7.80;7.00;;;24.30;90.60;;;;;;4945573;28;20451;-46
2022/08/15 00:38:08;;;;;;;9.80;6.82;;;24.30;90.70;;;;;;4962610;28;21337;-48
2022/08/15 00:41:39;;;;;;;8.57;7.57;;;24.30;90.80;;;;;;4962428;28;20038;-44
2022/08/15 00:43:22;;;;;;;9.02;7.07;;;24.20;90.80;;;;;;4961405;28;20047;-46
2022/08/15 00:45:49;;;;;;;10.05;7.35;;;24.20;90.90;;;;;;4961378;28;20101;-44
2022/08/15 00:51:01;;;;;;;10.10;7.00;;;24.20;90.90;;;;;;4962060;28;20046;-48
2022/08/15 00:53:27;;;;;;;8.57;7.65;;;24.20;91.10;;;;;;4959967;28;20035;-44
2022/08/15 00:55:54;;;;;;;8.25;7.38;;;24.10;91.10;;;;;;4947351;28;20389;-45
2022/08/15 00:58:21;;;;;;;8.30;7.20;;;24.00;91.30;;;;;;4967618;28;20042;-45
2022/08/15 01:00:48;;;;;;;7.97;7.18;;;24.00;91.30;;;;;;4968595;28;20046;-46
2022/08/15 01:03:21;;;;;;;10.57;8.27;;;24.00;91.30;;;;;;4968601;28;20042;-44
2022/08/15 01:05:50;;;;;;;8.40;7.25;;;24.00;91.30;;;;;;4963190;28;20034;-45
2022/08/15 01:08:17;;;;;;;8.55;7.43;;;24.00;91.40;;;;;;4969013;28;20144;-48
2022/08/15 01:10:43;;;;;;;10.18;7.30;;;24.00;91.40;;;;;;4968107;28;20189;-45
2022/08/15 01:13:10;;;;;;;9.75;7.25;;;23.90;91.40;;;;;;4967204;28;20047;-44
2022/08/15 01:15:36;;;;;;;8.65;7.38;;;23.90;91.60;;;;;;4967461;28;20427;-49
2022/08/15 01:18:02;;;;;;;7.85;6.75;;;23.80;92.00;;;;;;4968783;28;20132;-47
2022/08/15 01:20:31;;;;;;;7.85;6.95;;;23.80;92.20;;;;;;4967919;28;20043;-47
2022/08/15 01:23:14;;;;;;;8.23;7.20;;;23.70;92.70;;;;;;4947765;28;20063;-47
2022/08/15 01:25:40;;;;;;;9.45;7.30;;;23.60;92.90;;;;;;4948549;28;20047;-46
2022/08/15 01:28:24;;;;;;;8.90;7.43;;;23.60;93.00;;;;;;4948695;28;20054;-45
2022/08/15 01:30:57;;;;;;;8.75;7.70;;;23.60;93.00;;;;;;4948526;28;20050;-49
2022/08/15 01:33:25;;;;;;;10.65;7.63;;;23.60;93.00;;;;;;4949135;28;20039;-46
2022/08/15 01:35:52;;;;;;;9.35;7.40;;;23.70;92.90;;;;;;4949352;28;20621;-46
2022/08/15 01:38:26;;;;;;;11.15;8.80;;;23.70;92.80;;;;;;4948905;28;20499;-45
2022/08/15 01:41:06;;;;;;;9.70;8.35;;;23.70;92.80;;;;;;4948143;28;20042;-44
2022/08/15 01:43:41;;;;;;;10.57;8.05;;;23.70;92.90;;;;;;4948622;28;20038;-46
2022/08/15 01:46:10;;;;;;;9.88;8.18;;;23.60;92.90;;;;;;4948707;28;20043;-44
2022/08/15 01:48:46;;;;;;;8.65;7.75;;;23.70;93.00;;;;;;4948909;28;23234;-46
2022/08/15 01:51:15;;;;;;;8.82;7.28;;;23.70;93.10;;;;;;4948146;28;20629;-46
2022/08/15 01:54:01;;;;;;;8.70;7.53;;;23.60;93.10;;;;;;4948832;28;20079;-45
2022/08/15 01:56:33;;;;;;;10.60;8.90;;;23.70;93.10;;;;;;4948743;28;20074;-46
2022/08/15 01:59:01;;;;;;;9.93;7.18;;;23.80;93.90;;;;;;4948026;28;20116;-45
2022/08/15 02:01:47;;;;;;;9.55;8.00;;;23.80;93.90;;;;;;4949440;28;20562;-48
2022/08/15 02:04:15;;;;;;;11.38;8.00;;;23.70;94.50;;;;;;4947411;28;20122;-47
2022/08/15 02:06:42;;;;;;;9.48;8.48;;;23.60;94.50;;;;;;4946543;28;20061;-45
2022/08/15 02:09:11;;;;;;;9.85;7.68;;;23.70;94.70;;;;;;4944361;28;20255;-46
2022/08/15 02:11:37;;;;;;;8.88;7.97;;;23.60;94.90;;;;;;4944777;28;20511;-47
2022/08/15 02:14:03;;;;;;;10.57;8.93;;;23.50;95.10;;;;;;4943398;28;20035;-47
2022/08/15 02:16:35;;;;;;;11.32;9.77;;;23.50;95.40;;;;;;4944930;28;20118;-46
2022/08/15 02:19:05;;;;;;;11.55;9.90;;;23.40;95.70;;;;;;4944875;28;20043;-47
2022/08/15 02:21:31;;;;;;;10.68;9.45;;;23.40;95.90;;;;;;4946131;28;20043;-44
2022/08/15 02:23:58;;;;;;;10.95;9.23;;;23.30;96.30;;;;;;4944260;28;20051;-47
2022/08/15 02:26:24;;;;;;;11.07;9.30;;;23.30;96.60;;;;;;4944672;28;20058;-46
2022/08/15 02:28:50;;;;;;;10.65;9.55;;;23.20;97.30;;;;;;4946140;28;20057;-45
2022/08/15 02:31:20;;;;;;;10.45;9.18;;;23.20;97.30;;;;;;4944576;28;20050;-46
2022/08/15 02:33:49;;;;;;;11.10;8.77;;;23.30;97.60;;;;;;4945868;28;20059;-49
2022/08/15 02:36:17;;;;;;;10.75;8.68;;;23.20;97.70;;;;;;4944358;28;20047;-46
2022/08/15 02:38:45;;;;;;;11.25;8.20;;;23.20;97.80;;;;;;4959879;28;20062;-45
2022/08/15 02:41:13;;;;;;;11.35;8.93;;;23.00;97.50;;;;;;4946199;28;20517;-44
2022/08/15 02:43:43;;;;;;;10.43;8.77;;;23.00;97.20;;;;;;4944871;28;20042;-45
2022/08/15 02:46:10;;;;;;;9.27;8.38;;;23.10;97.00;;;;;;4945344;28;20066;-47
2022/08/15 02:48:39;;;;;;;10.15;8.98;;;23.00;96.80;;;;;;4943900;28;20031;-45
2022/08/15 02:51:08;;;;;;;10.05;8.45;;;23.00;96.80;;;;;;4945257;28;20047;-45
2022/08/15 02:53:34;;;;;;;10.05;8.82;;;22.90;96.80;;;;;;4944486;28;20071;-48
2022/08/15 02:56:00;;;;;;;10.38;8.30;;;22.90;96.70;;;;;;4945953;28;20035;-49
2022/08/15 02:58:26;;;;;;;9.82;8.43;;;22.90;96.80;;;;;;4943875;28;20534;-46
2022/08/15 03:00:52;;;;;;;10.18;8.32;;;22.80;96.80;;;;;;4945115;28;20130;-45
2022/08/15 03:03:19;;;;;;;16.17;8.57;;;22.90;96.70;;;;;;4943740;28;20071;-50
2022/08/15 03:05:47;;;;;;;9.43;8.45;;;22.60;96.90;;;;;;4944097;28;20400;-46
2022/08/15 03:08:13;;;;;;;9.48;8.20;;;22.70;96.90;;;;;;4944377;28;20107;-46
2022/08/15 03:10:39;;;;;;;9.60;8.40;;;22.70;96.90;;;;;;4943688;28;20122;-48
2022/08/15 03:13:09;;;;;;;9.40;8.40;;;22.60;97.00;;;;;;4944418;28;20027;-46
2022/08/15 03:15:46;;;;;;;11.38;8.05;;;22.60;97.20;;;;;;4942489;28;20397;-49
2022/08/15 03:18:12;;;;;;;9.52;8.27;;;22.60;97.00;;;;;;4944554;28;20040;-46
2022/08/15 03:20:40;;;;;;;9.25;7.88;;;22.50;97.10;;;;;;4943699;28;20039;-47
2022/08/15 03:23:07;;;;;;;10.65;8.02;;;22.60;97.10;;;;;;4952615;28;20059;-47
2022/08/15 03:25:39;;;;;;;9.82;7.78;;;22.50;97.40;;;;;;4963246;28;20073;-45
2022/08/15 03:28:04;;;;;;;8.77;7.75;;;22.50;97.30;;;;;;4964122;28;20046;-47
2022/08/15 03:30:30;;;;;;;9.07;7.32;;;22.50;97.10;;;;;;4963317;28;20403;-50
2022/08/15 03:32:57;;;;;;;8.48;7.55;;;22.50;97.40;;;;;;4963822;28;20122;-47
2022/08/15 03:35:28;;;;;;;9.15;7.72;;;22.50;97.20;;;;;;4962514;28;20076;-45
2022/08/15 03:37:55;;;;;;;9.32;7.70;;;22.50;97.10;;;;;;4945699;28;20039;-44
2022/08/15 03:40:20;;;;;;;8.93;7.15;;;22.50;97.10;;;;;;4963668;28;20394;-44
2022/08/15 03:42:59;;;;;;;7.65;6.80;;;22.50;97.10;;;;;;4962476;28;20046;-45
2022/08/15 03:45:27;;;;;;;8.07;7.15;;;22.60;97.30;;;;;;4961221;28;20030;-44
2022/08/15 03:47:53;;;;;;;9.63;7.72;;;22.60;97.10;;;;;;4963616;28;20062;-44
2022/08/15 03:50:20;;;;;;;9.48;7.88;;;22.50;97.10;;;;;;4962086;28;20057;-45
2022/08/15 03:52:57;;;;;;;9.13;7.55;;;22.50;97.20;;;;;;4961614;28;20038;-46
2022/08/15 03:55:26;;;;;;;8.63;7.72;;;22.30;97.60;;;;;;4962512;28;20039;-46
2022/08/15 03:57:52;;;;;;;8.73;7.82;;;22.30;97.60;;;;;;4963520;28;20058;-47
2022/08/15 04:00:23;;;;;;;9.80;7.78;;;22.20;97.70;;;;;;4962658;28;20470;-45
2022/08/15 04:02:48;;;;;;;10.25;8.15;;;22.40;97.80;;;;;;4963388;28;20042;-46
2022/08/15 04:05:14;;;;;;;11.77;7.90;;;22.30;97.80;;;;;;4962541;28;20039;-48
2022/08/15 04:07:41;;;;;;;10.73;7.97;;;22.20;97.90;;;;;;4962308;28;20027;-46
2022/08/15 04:10:12;;;;;;;11.38;7.15;;;22.10;98.20;;;;;;4962053;28;20537;-49
2022/08/15 04:12:40;;;;;;;9.55;7.53;;;22.00;99.20;;;;;;4961760;28;20035;-48
2022/08/15 04:15:10;;;;;;;10.73;7.70;;;21.80;99.10;;;;;;4962225;28;20027;-45
2022/08/15 04:17:36;;;;;;;9.32;8.35;;;21.80;99.70;;;;;;4962959;28;20041;-47
2022/08/15 04:20:02;;;;;;;9.07;8.18;;;21.80;99.70;;;;;;4962737;28;20031;-46
2022/08/15 04:22:38;;;;;;;11.98;9.38;;;21.70;99.90;;;;;;4962140;28;20067;-46
2022/08/15 04:25:10;;;;;;;11.57;10.38;;;21.60;99.90;;;;;;4962065;28;20078;-48
2022/08/15 04:27:36;;;;;;;13.35;10.90;;;21.60;99.90;;;;;;4944434;28;20491;-46
2022/08/15 04:30:05;;;;;;;11.93;10.65;;;21.60;99.90;;;;;;4962074;28;20038;-47
2022/08/15 04:32:31;;;;;;;11.50;10.15;;;21.60;99.90;;;;;;4962419;28;20042;-46
2022/08/15 04:34:58;;;;;;;12.13;10.82;;;21.50;99.90;;;;;;4962347;28;20430;-45
2022/08/15 04:37:25;;;;;;;13.80;12.35;;;21.30;99.90;;;;;;4962847;28;20078;-44
2022/08/15 04:39:51;;;;;;;14.23;11.93;;;21.20;99.90;;;;;;4962414;28;20034;-46
2022/08/15 04:42:21;;;;;;;15.00;13.18;;;21.00;99.90;;;;;;4961978;28;20062;-46
2022/08/15 04:44:48;;;;;;;14.63;13.13;;;21.00;99.90;;;;;;4962528;28;20073;-45
2022/08/15 04:47:14;;;;;;;14.80;13.13;;;20.90;99.90;;;;;;4961715;28;20068;-44
2022/08/15 04:49:42;;;;;;;18.60;14.15;;;20.80;99.90;;;;;;4962232;28;20034;-44
2022/08/15 04:52:16;;;;;;;14.32;12.80;;;20.80;99.90;;;;;;4961697;28;20476;-44
2022/08/15 04:54:42;;;;;;;15.25;13.10;;;20.90;99.90;;;;;;4961391;28;20875;-44
2022/08/15 04:57:08;;;;;;;15.95;13.50;;;20.80;99.90;;;;;;4962461;28;20042;-46
2022/08/15 04:59:36;;;;;;;16.40;12.38;;;21.00;99.90;;;;;;4963223;28;20038;-45
2022/08/15 05:02:07;;;;;;;16.98;13.02;;;21.00;99.90;;;;;;4962150;28;20070;-45
2022/08/15 05:04:33;;;;;;;16.65;12.68;;;21.10;99.90;;;;;;4961593;28;20043;-45
2022/08/15 05:06:59;;;;;;;15.98;11.80;;;21.30;99.90;;;;;;4960982;28;20082;-45
2022/08/15 05:09:25;;;;;;;15.85;12.02;;;21.30;99.90;;;;;;4960921;28;20070;-47
2022/08/15 05:11:50;;;;;;;14.43;11.20;;;21.40;99.90;;;;;;4961402;28;20077;-45
2022/08/15 05:14:16;;;;;;;14.05;11.65;;;21.50;99.90;;;;;;4961244;28;20491;-45
2022/08/15 05:16:42;;;;;;;13.60;11.40;;;21.60;99.90;;;;;;4961346;28;20043;-44
2022/08/15 05:19:08;;;;;;;14.35;11.77;;;21.60;99.90;;;;;;4960829;28;20042;-46
2022/08/15 05:21:33;;;;;;;12.40;11.10;;;21.70;99.90;;;;;;4962128;28;20039;-47
2022/08/15 05:23:59;;;;;;;11.63;9.88;;;21.70;99.90;;;;;;4962087;28;20534;-46
2022/08/15 05:26:25;;;;;;;12.82;10.27;;;21.80;99.90;;;;;;4961361;28;20035;-45
2022/08/15 05:28:50;;;;;;;12.00;10.40;;;21.80;99.90;;;;;;4961949;28;20043;-46
2022/08/15 05:31:16;;;;;;;13.35;10.05;;;21.80;99.90;;;;;;4961680;28;20047;-47
2022/08/15 05:33:46;;;;;;;11.20;9.77;;;21.80;99.90;;;;;;4961330;28;20043;-47
2022/08/15 05:36:13;;;;;;;12.52;9.73;;;21.90;99.90;;;;;;4943987;28;20035;-45
2022/08/15 05:38:46;;;;;;;11.95;9.73;;;21.90;99.90;;;;;;4960787;28;20034;-47
2022/08/15 05:41:24;;;;;;;12.55;10.05;;;21.90;99.90;;;;;;4960895;28;20070;-45
2022/08/15 05:43:56;;;;;;;11.50;10.32;;;22.00;99.90;;;;;;4962565;28;20093;-44
2022/08/15 05:46:46;;;;;;;11.57;10.38;;;21.90;99.90;;;;;;4965351;28;20046;-45
2022/08/15 05:49:36;;;;;;;10.65;9.55;;;22.00;99.90;;;;;;4964833;28;20546;-47
2022/08/15 05:52:34;;;;;;;15.23;9.85;;;22.10;99.90;;;;;;4968745;28;20049;-45
2022/08/15 05:55:13;;;;;;;11.23;9.65;;;22.20;99.90;;;;;;4966843;28;20046;-46
2022/08/15 05:58:03;;;;;;;11.07;9.90;;;22.40;99.90;;;;;;4966354;28;20117;-47
2022/08/15 06:00:30;;;;;;;12.05;10.65;;;22.40;99.90;;;;;;4961464;28;20129;-48
2022/08/15 06:03:03;;;;;;;11.43;9.90;;;22.50;99.90;;;;;;4957831;28;20039;-46
2022/08/15 06:05:51;;;;;;;10.70;9.43;;;22.50;99.90;;;;;;4955249;28;20095;-45
2022/08/15 06:08:22;;;;;;;10.75;9.45;;;22.70;99.90;;;;;;4970777;28;20117;-47
2022/08/15 06:10:56;;;;;;;12.85;9.57;;;22.70;99.90;;;;;;4970923;28;20089;-47
2022/08/15 06:13:28;;;;;;;12.32;9.95;;;22.70;99.90;;;;;;4974076;28;20067;-45
2022/08/15 06:16:04;;;;;;;11.18;9.88;;;22.80;99.90;;;;;;4959191;28;20078;-47
2022/08/15 06:18:34;;;;;;;10.50;9.32;;;22.70;99.90;;;;;;4956046;28;20026;-46
2022/08/15 06:21:46;;;;;;;12.63;9.50;;;22.80;99.90;;;;;;4954438;28;20094;-45
2022/08/15 06:24:38;;;;;;;11.10;9.38;;;22.90;99.90;;;;;;4953965;28;20051;-47
2022/08/15 06:27:22;;;;;;;11.20;9.98;;;23.00;99.90;;;;;;4953797;28;20157;-46
2022/08/15 06:29:57;;;;;;;;;;;23.00;99.90;;;;;;4974311;28;20061;-45
2022/08/15 06:32:32;;;;;;;12.43;10.27;;;23.10;99.90;;;;;;4973560;28;19949;-46
2022/08/15 06:35:25;;;;;;;11.05;9.93;;;23.10;99.20;;;;;;4973849;28;20038;-47
2022/08/15 06:37:57;;;;;;;11.27;10.18;;;23.20;99.50;;;;;;4973731;28;20043;-44
2022/08/15 06:40:38;;;;;;;13.23;10.82;;;23.20;99.30;;;;;;4973349;28;20049;-44
2022/08/15 06:43:07;;;;;;;13.38;10.95;;;23.20;99.10;;;;;;4973638;28;20581;-46
2022/08/15 06:45:38;;;;;;;14.02;10.82;;;23.20;99.40;;;;;;4961476;28;20134;-46
2022/08/15 06:48:13;;;;;;;12.23;9.68;;;23.20;99.50;;;;;;4936595;28;20050;-44
2022/08/15 06:50:48;;;;;;;13.60;11.07;;;23.30;99.50;;;;;;4954757;28;20050;-44
2022/08/15 06:53:36;;;;;;;13.57;12.07;;;23.30;99.50;;;;;;4953482;28;20093;-44
2022/08/15 06:56:13;;;;;;;15.38;12.70;;;23.40;99.70;;;;;;4954924;28;20063;-46
2022/08/15 06:58:54;;;;;;;14.75;13.20;;;23.30;99.70;;;;;;4953920;28;20078;-44
2022/08/15 07:01:34;;;;;;;15.30;12.82;;;23.40;99.90;;;;;;4953987;28;20461;-47
2022/08/15 07:03:59;;;;;;;14.45;12.20;;;23.40;99.80;;;;;;4971748;28;20090;-48
2022/08/15 07:06:45;;;;;;;15.15;13.55;;;23.40;99.90;;;;;;4972898;28;20121;-48
2022/08/15 07:09:25;;;;;;;14.77;13.20;;;23.30;99.90;;;;;;4955762;28;20046;-46
2022/08/15 07:12:10;;;;;;;17.55;13.30;;;23.30;99.90;;;;;;4972004;28;20043;-44
2022/08/15 07:14:49;;;;;;;20.20;13.48;;;23.30;99.90;;;;;;4972370;28;20113;-45
2022/08/15 07:17:30;;;;;;;17.77;14.95;;;23.30;99.90;;;;;;4972786;28;20110;-45
2022/08/15 07:19:56;;;;;;;16.88;14.82;;;23.40;99.90;;;;;;4955223;28;20368;-46
2022/08/15 07:22:21;;;;;;;20.42;14.40;;;23.40;99.90;;;;;;4972505;28;20039;-46
2022/08/15 07:24:52;;;;;;;18.52;14.90;;;23.50;99.90;;;;;;4973031;28;20050;-45
2022/08/15 07:27:29;;;;;;;20.92;15.52;;;23.50;99.90;;;;;;4972723;28;20038;-47
2022/08/15 07:29:59;;;;;;;25.25;15.32;;;23.60;99.90;;;;;;4972656;28;20494;-45
2022/08/15 07:32:44;;;;;;;18.80;14.82;;;23.70;99.90;;;;;;4972783;28;20034;-49
2022/08/15 07:35:11;;;;;;;15.98;14.27;;;23.70;99.90;;;;;;4972708;28;20441;-47
2022/08/15 07:37:41;;;;;;;16.83;14.82;;;23.80;99.90;;;;;;4938801;28;20046;-46
2022/08/15 07:40:14;;;;;;;20.15;14.57;;;23.70;99.50;;;;;;4972422;28;20031;-45
2022/08/15 07:42:42;;;;;;;15.95;14.40;;;23.70;99.60;;;;;;4972336;28;20043;-46
2022/08/15 07:45:16;;;;;;;16.45;14.70;;;23.80;99.80;;;;;;4971864;28;20034;-46
2022/08/15 07:47:57;;;;;;;14.90;13.32;;;23.80;99.90;;;;;;4972130;28;20043;-46
2022/08/15 07:50:28;;;;;;;15.48;13.65;;;23.90;99.90;;;;;;4972119;28;20042;-45
2022/08/15 07:53:21;;;;;;;15.27;13.23;;;24.00;99.80;;;;;;4972342;28;20038;-48
2022/08/15 07:56:10;;;;;;;15.65;13.38;;;24.00;99.50;;;;;;4972312;28;20042;-45
2022/08/15 07:58:36;;;;;;;16.38;14.02;;;24.00;99.30;;;;;;4970999;28;20035;-48
2022/08/15 08:01:23;;;;;;;15.98;14.27;;;24.00;99.30;;;;;;4952487;28;20043;-44
2022/08/15 08:04:13;;;;;;;17.27;14.52;;;24.10;98.70;;;;;;4954693;28;20053;-45
2022/08/15 08:06:55;;;;;;;15.88;13.95;;;24.20;99.30;;;;;;4970191;28;20043;-44
2022/08/15 08:09:42;;;;;;;16.75;13.68;;;24.30;99.10;;;;;;4965467;28;20475;-44
2022/08/15 08:12:08;;;;;;;17.20;13.75;;;24.30;99.10;;;;;;4971554;28;20039;-47
2022/08/15 08:14:47;;;;;;;15.57;12.75;;;24.30;98.90;;;;;;4971580;28;20031;-48
2022/08/15 08:17:30;;;;;;;13.95;11.85;;;24.40;98.70;;;;;;4971190;28;20113;-45
2022/08/15 08:20:23;;;;;;;15.38;12.93;;;24.50;98.90;;;;;;4971841;28;20043;-46
2022/08/15 08:23:21;;;;;;;14.20;12.60;;;24.70;99.20;;;;;;4971100;28;20054;-45
2022/08/15 08:25:59;;;;;;;15.82;11.75;;;24.70;99.20;;;;;;4965938;28;20051;-44
2022/08/15 08:28:38;;;;;;;14.30;12.18;;;24.80;98.70;;;;;;4953206;28;20464;-43
2022/08/15 08:31:23;;;;;;;12.60;11.05;;;24.80;98.90;;;;;;4953632;28;20479;-43
2022/08/15 08:34:01;;;;;;;13.15;11.07;;;24.70;99.00;;;;;;4952392;28;20487;-44
2022/08/15 08:36:27;;;;;;;13.40;11.73;;;24.80;99.10;;;;;;4951973;28;20035;-48
2022/08/15 08:39:27;;;;;;;13.10;11.63;;;24.90;99.20;;;;;;4952390;28;20031;-46
2022/08/15 08:42:16;;;;;;;12.93;11.60;;;24.90;99.50;;;;;;4956294;28;20050;-49
2022/08/15 08:45:07;;;;;;;12.90;11.50;;;25.00;99.60;;;;;;4971035;28;20034;-44
2022/08/15 08:47:39;;;;;;;12.40;11.10;;;25.30;99.80;;;;;;4971516;28;20031;-46
2022/08/15 08:50:17;;;;;;;14.02;11.70;;;25.40;99.50;;;;;;4953684;28;20039;-46
2022/08/15 08:53:00;;;;;;;13.45;11.52;;;25.50;99.50;;;;;;4971287;28;20077;-46
2022/08/15 08:55:28;;;;;;;14.27;12.43;;;25.80;99.50;;;;;;4971527;28;20034;-45
2022/08/15 08:58:06;;;;;;;13.77;12.27;;;25.80;99.20;;;;;;4953356;28;20031;-46
2022/08/15 09:00:41;;;;;;;14.48;11.18;;;25.80;99.00;;;;;;4961289;28;20066;-46
2022/08/15 09:03:14;;;;;;;15.77;12.63;;;26.00;99.30;;;;;;4970957;28;20119;-46
2022/08/15 09:05:49;;;;;;;15.02;12.30;;;25.80;99.10;;;;;;4971415;28;20105;-46
2022/08/15 09:08:36;;;;;;;13.70;11.20;;;25.90;99.50;;;;;;4970981;28;20043;-46
2022/08/15 09:11:18;;;;;;;12.48;11.18;;;25.90;99.80;;;;;;4939026;28;20142;-45
2022/08/15 09:13:46;;;;;;;10.90;9.27;;;25.80;99.90;;;;;;4934398;28;20045;-45
2022/08/15 09:16:26;;;;;;;11.30;9.27;;;25.70;99.90;;;;;;4951735;28;20400;-44
2022/08/15 09:19:23;;;;;;;9.60;8.60;;;25.70;99.90;;;;;;4955321;28;20032;-46
2022/08/15 09:21:50;;;;;;;16.08;9.45;;;25.60;99.80;;;;;;4956349;28;20047;-45
2022/08/15 09:24:19;;;;;;;11.35;8.30;;;25.90;99.90;;;;;;4942952;28;20507;-46
2022/08/15 09:26:57;;;;;;;11.85;8.13;;;25.80;99.50;;;;;;4944349;28;20101;-45
2022/08/15 09:29:53;;;;;;;10.50;7.80;;;25.80;99.60;;;;;;4966138;28;20043;-44
2022/08/15 09:32:38;;;;;;;9.35;7.72;;;25.70;99.20;;;;;;4956732;28;20499;-43
2022/08/15 09:35:29;;;;;;;8.88;6.88;;;25.60;99.20;;;;;;4949899;28;20051;-44
2022/08/15 09:38:27;;;;;;;7.53;6.57;;;25.50;98.70;;;;;;4974153;28;20052;-45
2022/08/15 09:41:12;;;;;;;7.63;5.80;;;25.60;98.40;;;;;;4970426;28;20039;-46
2022/08/15 09:44:07;;;;;;;6.70;5.60;;;25.40;97.60;;;;;;4955398;28;20055;-46
2022/08/15 09:47:11;;;;;;;7.22;6.07;;;25.50;97.70;;;;;;4955777;28;20057;-49
2022/08/15 09:49:55;;;;;;;8.20;6.43;;;25.60;98.10;;;;;;4893979;29;20085;-46
2022/08/15 09:52:34;;;;;;;;;;;25.50;98.00;;;;;;4894585;29;20053;-47
2022/08/15 09:55:18;;;;;;;10.40;6.25;;;25.50;98.10;;;;;;4933876;28;19982;-46
2022/08/15 09:57:49;;;;;;;;;;;25.70;98.30;;;;;;4940476;28;20379;-45
2022/08/15 10:00:18;;;;;;;8.82;6.07;;;25.60;97.40;;;;;;4960703;28;19922;-44
2022/08/15 10:02:46;;;;;;;11.65;6.53;;;25.70;97.70;;;;;;4964342;28;20031;-49
2022/08/15 10:05:14;;;;;;;12.27;6.30;;;25.70;97.70;;;;;;4962145;28;20497;-49
2022/08/15 10:08:09;;;;;;;8.77;6.00;;;25.80;98.00;;;;;;4962468;28;20039;-48
2022/08/15 10:10:56;;;;;;;8.00;6.05;;;25.90;98.20;;;;;;4961497;28;20506;-45
2022/08/15 10:14:01;;;;;;;9.55;6.47;;;25.90;97.80;;;;;;4959115;28;20570;-46
2022/08/15 10:16:39;;;;;;;8.23;6.03;;;25.90;97.40;;;;;;4947307;28;20086;-50
2022/08/15 10:19:09;;;;;;;10.93;6.30;;;26.00;97.60;;;;;;4961614;28;20039;-45
2022/08/15 10:21:39;;;;;;;10.35;6.28;;;26.00;97.40;;;;;;4955804;28;20058;-46
2022/08/15 10:24:28;;;;;;;7.70;5.82;;;26.10;97.40;;;;;;4950998;28;20394;-47
2022/08/15 10:27:09;;;;;;;8.73;6.32;;;26.10;97.30;;;;;;4949786;28;20490;-47
2022/08/15 10:29:38;;;;;;;9.63;6.22;;;26.10;97.80;;;;;;4961661;28;20039;-47
2022/08/15 10:32:18;;;;;;;10.07;5.97;;;26.00;97.80;;;;;;4966350;28;20047;-46
2022/08/15 10:35:15;;;;;;;8.85;5.95;;;26.00;97.80;;;;;;4963612;28;20376;-48
2022/08/15 10:37:51;;;;;;;8.73;6.05;;;25.90;98.20;;;;;;4957898;28;20043;-48
2022/08/15 10:40:43;;;;;;;8.07;6.20;;;25.90;98.50;;;;;;4955662;28;20066;-45
2022/08/15 10:43:27;;;;;;;8.18;6.78;;;26.00;98.40;;;;;;4939664;28;20035;-45
2022/08/15 10:46:24;;;;;;;8.85;6.80;;;26.00;98.20;;;;;;4953791;28;20070;-46
2022/08/15 10:49:25;;;;;;;8.85;6.30;;;26.10;98.00;;;;;;4945681;28;20058;-48
2022/08/15 10:51:58;;;;;;;10.05;6.60;;;26.20;98.20;;;;;;4936848;28;20058;-46
2022/08/15 10:54:54;;;;;;;8.17;6.00;;;26.00;97.60;;;;;;4973329;28;20081;-45
2022/08/15 10:57:22;;;;;;;10.27;5.57;;;26.00;98.20;;;;;;4963098;28;20399;-48
2022/08/15 10:59:53;;;;;;;7.32;5.20;;;25.90;98.10;;;;;;4972872;28;20418;-46
2022/08/15 11:02:33;;;;;;;9.05;5.80;;;25.90;98.10;;;;;;4958255;28;20035;-45
2022/08/15 11:05:05;;;;;;;17.33;7.05;;;25.90;98.30;;;;;;4960139;28;20047;-45
2022/08/15 11:07:35;;;;;;;15.00;6.87;;;25.90;98.50;;;;;;4955557;28;20035;-47
2022/08/15 11:10:13;;;;;;;10.55;5.80;;;25.90;98.90;;;;;;4957114;28;20118;-46
2022/08/15 11:12:43;;;;;;;8.35;6.07;;;26.00;98.90;;;;;;4956095;28;20382;-48
2022/08/15 11:15:20;;;;;;;10.55;5.60;;;26.00;98.30;;;;;;4955453;28;20031;-45
2022/08/15 11:17:52;;;;;;;8.10;4.72;;;26.10;98.00;;;;;;4954784;28;20039;-46
2022/08/15 11:20:22;;;;;;;15.13;5.32;;;26.00;97.70;;;;;;4960130;28;20039;-44
2022/08/15 11:22:53;;;;;;;17.20;5.55;;;26.20;97.50;;;;;;4940814;29;20060;-45
2022/08/15 11:25:24;;;;;;;11.63;4.90;;;26.40;97.40;;;;;;4943875;29;20031;-48
2022/08/15 11:28:10;;;;;;;6.53;4.60;;;26.50;97.20;;;;;;4945391;28;20491;-46
2022/08/15 11:30:39;;;;;;;7.72;3.97;;;26.50;96.50;;;;;;4944016;29;20483;-45
2022/08/15 11:33:24;;;;;;;6.18;3.90;;;26.70;96.90;;;;;;4935665;29;20113;-47
2022/08/15 11:36:03;;;;;;;6.60;3.55;;;26.70;96.80;;;;;;4936284;29;20094;-46
2022/08/15 11:38:31;;;;;;;7.82;4.72;;;26.70;96.00;;;;;;4948911;28;20126;-46
2022/08/15 11:40:59;;;;;;;7.03;4.10;;;26.70;95.90;;;;;;4941869;28;20123;-45
2022/08/15 11:43:25;;;;;;;9.63;4.30;;;26.60;95.40;;;;;;4945512;28;20090;-45
2022/08/15 11:45:53;;;;;;;6.10;4.13;;;26.70;95.40;;;;;;4945717;28;20043;-47
2022/08/15 11:48:26;;;;;;;6.68;4.28;;;26.80;94.90;;;;;;4941793;28;20473;-45
2022/08/15 11:51:02;;;;;;;5.75;3.75;;;26.90;95.00;;;;;;4940957;28;20696;-45
2022/08/15 11:53:37;;;;;;;6.30;3.85;;;27.20;94.80;;;;;;4936370;29;20040;-48
2022/08/15 11:56:04;;;;;;;10.13;3.70;;;27.30;94.00;;;;;;4934576;29;20036;-50
2022/08/15 11:58:44;;;;;;;5.80;3.70;;;27.90;93.80;;;;;;4933772;29;20031;-45
2022/08/15 12:01:29;;;;;;;6.88;3.15;;;28.10;92.40;;;;;;4934488;28;20392;-45
2022/08/15 12:04:06;;;;;;;7.78;4.13;;;28.80;92.70;;;;;;4933845;29;20667;-45
2022/08/15 12:06:38;;;;;;;7.43;3.78;;;28.80;92.10;;;;;;4933438;29;20050;-47
2022/08/15 12:09:14;;;;;;;5.30;4.07;;;28.80;91.90;;;;;;4950918;28;20434;-48
2022/08/15 12:11:49;;;;;;;5.57;3.85;;;28.90;91.20;;;;;;4942165;28;20733;-49
2022/08/15 12:14:21;;;;;;;6.05;3.65;;;28.70;91.60;;;;;;4952594;29;20509;-46
2022/08/15 12:17:07;;;;;;;6.20;3.97;;;28.60;91.60;;;;;;4947089;29;20043;-47
2022/08/15 12:19:35;;;;;;;5.90;3.63;;;28.40;90.90;;;;;;4946096;29;20050;-46
2022/08/15 12:22:14;;;;;;;7.78;3.45;;;28.20;91.40;;;;;;4934049;29;20039;-46
2022/08/15 12:24:45;;;;;;;7.00;3.17;;;28.10;91.40;;;;;;4953848;28;20039;-46
2022/08/15 12:27:11;;;;;;;5.63;3.20;;;28.20;91.80;;;;;;4952977;28;20055;-44
2022/08/15 12:29:38;;;;;;;6.90;2.92;;;28.00;91.30;;;;;;4954892;28;20070;-47
2022/08/15 12:32:07;;;;;;;6.10;2.72;;;28.00;91.80;;;;;;4952411;28;20031;-47
2022/08/15 12:34:37;;;;;;;5.20;2.85;;;28.00;91.40;;;;;;4952289;28;20185;-46
2022/08/15 12:37:13;;;;;;;8.85;3.17;;;28.10;91.40;;;;;;4952335;28;20365;-48
2022/08/15 12:39:48;;;;;;;7.28;3.35;;;28.10;91.50;;;;;;4936617;28;20051;-48
2022/08/15 12:42:34;;;;;;;7.43;3.20;;;28.10;91.10;;;;;;4952154;28;20126;-46
2022/08/15 12:45:14;;;;;;;8.80;3.58;;;28.00;91.10;;;;;;4954688;28;20094;-49
2022/08/15 12:47:41;;;;;;;5.28;2.83;;;28.00;91.00;;;;;;4970265;28;20039;-46
2022/08/15 12:50:08;;;;;;;8.35;2.90;;;28.10;90.90;;;;;;4951628;28;20043;-44
2022/08/15 12:52:36;;;;;;;9.10;3.20;;;28.10;91.40;;;;;;4951673;28;20038;-44
2022/08/15 12:55:06;;;;;;;9.10;3.30;;;28.20;91.60;;;;;;4926549;28;20038;-47
2022/08/15 12:57:32;;;;;;;6.70;2.90;;;28.10;90.80;;;;;;4967678;28;20125;-45
2022/08/15 12:59:57;;;;;;;5.70;2.55;;;28.20;90.70;;;;;;4970017;28;20187;-46
2022/08/15 13:02:24;;;;;;;6.28;2.72;;;28.40;90.50;;;;;;4968730;28;20034;-49
2022/08/15 13:04:52;;;;;;;5.43;2.45;;;28.60;89.90;;;;;;4953119;28;20053;-45
2022/08/15 13:07:19;;;;;;;4.65;2.50;;;28.80;89.00;;;;;;4952058;28;20039;-46
2022/08/15 13:09:45;;;;;;;3.45;2.17;;;29.00;87.80;;;;;;4951816;28;20463;-44
2022/08/15 13:12:12;;;;;;;5.88;2.75;;;29.60;88.00;;;;;;4950209;28;20038;-45
2022/08/15 13:14:38;;;;;;;4.25;2.38;;;29.50;86.10;;;;;;4970879;28;20045;-46